Time;durP1;ratioP1;P1;durP2;ratioP2;P2;SDS_P1;SDS_P2;PMS_P1;PMS_P2;Temp;Humidity;BMP_temperature;BMP_pressure;BME280_temperature;BME280_humidity;BME280_pressure;Samples;Min_cycle;Max_cycle;Signal;HPM_P1;HPM_P2
2021/04/26 00:00:06;;;;;;;1.00;0.52;;;15.40;51.20;;;;;;4974528;28;20499;-56
2021/04/26 00:02:32;;;;;;;1.73;0.70;;;15.40;74.50;;;;;;4974245;28;20094;-57
2021/04/26 00:04:58;;;;;;;1.42;0.55;;;15.40;74.20;;;;;;4953497;29;20509;-56
2021/04/26 00:07:23;;;;;;;1.17;0.60;;;15.30;51.20;;;;;;4954838;28;20024;-56
2021/04/26 00:09:49;;;;;;;0.98;0.60;;;15.50;51.30;;;;;;4954932;29;20019;-55
2021/04/26 00:12:14;;;;;;;1.48;0.50;;;15.30;51.10;;;;;;4954778;29;20046;-56
2021/04/26 00:14:41;;;;;;;2.42;0.70;;;15.30;51.20;;;;;;4955081;29;20034;-55
2021/04/26 00:17:06;;;;;;;1.35;0.63;;;15.60;74.20;;;;;;4955012;28;20506;-57
2021/04/26 00:19:32;;;;;;;1.35;0.50;;;15.30;73.90;;;;;;4954866;29;20059;-57
2021/04/26 00:21:58;;;;;;;1.23;0.52;;;15.10;74.20;;;;;;4953311;29;20032;-55
2021/04/26 00:24:24;;;;;;;1.17;0.50;;;15.30;51.20;;;;;;4954387;29;20030;-57
2021/04/26 00:26:49;;;;;;;1.77;0.75;;;15.30;51.20;;;;;;4954910;29;20035;-56
2021/04/26 00:29:15;;;;;;;0.80;0.55;;;15.30;74.10;;;;;;4954789;29;20049;-56
2021/04/26 00:31:40;;;;;;;1.45;0.57;;;15.30;51.20;;;;;;4954832;29;20027;-57
2021/04/26 00:34:06;;;;;;;1.95;0.50;;;15.30;51.20;;;;;;4954440;29;20043;-56
2021/04/26 00:36:32;;;;;;;1.02;0.47;;;15.00;73.70;;;;;;4954689;29;20088;-56
2021/04/26 00:38:57;;;;;;;2.08;0.88;;;15.20;51.20;;;;;;4953201;29;20033;-55
2021/04/26 00:41:23;;;;;;;1.65;0.52;;;15.20;51.10;;;;;;4954889;29;20034;-55
2021/04/26 00:43:49;;;;;;;2.15;0.65;;;15.20;51.80;;;;;;4954226;29;20031;-56
2021/04/26 00:46:15;;;;;;;1.90;0.70;;;15.30;51.20;;;;;;4953302;29;20035;-56
2021/04/26 00:48:42;;;;;;;0.57;0.50;;;15.10;74.10;;;;;;4954273;29;20114;-56
2021/04/26 00:51:08;;;;;;;1.05;0.50;;;15.30;74.20;;;;;;4954048;29;20494;-56
2021/04/26 00:53:35;;;;;;;1.33;0.50;;;14.90;51.10;;;;;;4953939;29;20020;-55
2021/04/26 00:56:02;;;;;;;2.13;0.68;;;15.10;74.30;;;;;;4954319;29;20028;-57
2021/04/26 00:58:28;;;;;;;1.10;0.50;;;15.40;74.90;;;;;;4954724;28;20027;-57
2021/04/26 01:00:53;;;;;;;0.80;0.50;;;15.20;51.20;;;;;;4954358;29;20019;-57
2021/04/26 01:03:19;;;;;;;0.93;0.50;;;14.80;74.70;;;;;;4954931;28;20492;-57
2021/04/26 01:05:45;;;;;;;0.93;0.60;;;15.20;51.20;;;;;;4973752;28;20063;-57
2021/04/26 01:08:11;;;;;;;0.88;0.52;;;15.20;74.20;;;;;;4973454;28;20055;-57
2021/04/26 01:10:37;;;;;;;1.20;0.52;;;15.20;51.20;;;;;;4955705;28;20038;-56
2021/04/26 01:13:34;;;;;;;0.70;0.50;;;15.10;51.20;;;;;;4956099;28;20023;-56
2021/04/26 01:16:24;;;;;;;2.17;0.70;;;15.10;51.20;;;;;;4973883;28;20023;-57
2021/04/26 01:19:08;;;;;;;1.65;0.80;;;15.20;51.30;;;;;;4976136;28;20046;-56
2021/04/26 01:22:11;;;;;;;1.98;0.60;;;15.10;51.30;;;;;;4959397;28;20077;-56
2021/04/26 01:24:59;;;;;;;1.05;0.70;;;15.10;51.20;;;;;;4977300;28;20030;-57
2021/04/26 01:27:36;;;;;;;3.38;0.65;;;15.20;51.30;;;;;;4959706;28;20030;-57
2021/04/26 01:30:12;;;;;;;1.08;0.50;;;15.10;51.30;;;;;;4977065;28;20023;-57
2021/04/26 01:32:50;;;;;;;3.05;0.73;;;14.90;74.10;;;;;;4977009;28;20054;-56
2021/04/26 01:35:18;;;;;;;1.65;0.68;;;15.10;51.30;;;;;;4976962;28;20030;-56
2021/04/26 01:37:48;;;;;;;1.45;0.60;;;15.10;73.70;;;;;;4977101;28;20078;-56
2021/04/26 01:40:15;;;;;;;3.58;0.52;;;15.00;51.30;;;;;;4976735;28;20031;-56
2021/04/26 01:42:43;;;;;;;1.35;0.45;;;15.10;54.70;;;;;;4976622;28;20030;-56
2021/04/26 01:45:12;;;;;;;1.80;0.60;;;15.00;52.00;;;;;;4976482;28;20045;-57
2021/04/26 01:47:40;;;;;;;1.63;0.43;;;15.10;51.40;;;;;;4976714;28;20027;-57
2021/04/26 01:50:09;;;;;;;1.70;0.75;;;14.90;75.00;;;;;;4976500;28;20053;-56
2021/04/26 01:52:36;;;;;;;0.82;0.50;;;15.00;51.30;;;;;;4976202;28;20035;-56
2021/04/26 01:55:07;;;;;;;1.67;0.55;;;14.90;74.70;;;;;;4976568;28;20030;-56
2021/04/26 01:57:35;;;;;;;0.47;0.45;;;15.00;51.30;;;;;;4959081;28;20031;-57
2021/04/26 02:00:06;;;;;;;1.80;0.50;;;14.80;73.80;;;;;;4976314;28;20030;-56
2021/04/26 02:02:34;;;;;;;1.00;0.55;;;15.00;51.40;;;;;;4976086;28;20448;-56
2021/04/26 02:05:00;;;;;;;2.90;0.88;;;15.00;51.40;;;;;;4976212;28;20046;-55
2021/04/26 02:07:27;;;;;;;1.02;0.40;;;15.00;51.40;;;;;;4976180;28;20023;-57
2021/04/26 02:09:53;;;;;;;3.47;0.80;;;15.00;51.40;;;;;;4975867;28;20022;-56
2021/04/26 02:12:19;;;;;;;2.25;0.47;;;15.00;51.40;;;;;;4976068;28;20038;-55
2021/04/26 02:14:45;;;;;;;1.40;0.40;;;14.90;51.30;;;;;;4975949;28;20077;-56
2021/04/26 02:17:12;;;;;;;0.65;0.30;;;14.90;51.40;;;;;;4976050;28;20050;-56
2021/04/26 02:19:37;;;;;;;1.23;0.43;;;15.20;71.90;;;;;;4976000;28;20526;-56
2021/04/26 02:22:04;;;;;;;2.05;0.45;;;14.90;51.40;;;;;;4975880;28;20027;-55
2021/04/26 02:24:30;;;;;;;0.70;0.32;;;14.90;51.40;;;;;;4975558;28;20061;-55
2021/04/26 02:26:58;;;;;;;2.70;0.60;;;14.90;51.40;;;;;;4976257;28;20054;-56
2021/04/26 02:29:24;;;;;;;2.47;0.52;;;14.90;51.40;;;;;;4974567;28;20105;-56
2021/04/26 02:31:53;;;;;;;1.70;0.55;;;15.00;73.50;;;;;;4976125;28;20117;-57
2021/04/26 02:34:32;;;;;;;1.10;0.47;;;14.90;51.40;;;;;;4958372;28;20034;-56
2021/04/26 02:37:08;;;;;;;2.25;0.50;;;14.90;51.30;;;;;;4975551;28;20101;-56
2021/04/26 02:39:36;;;;;;;0.85;0.32;;;14.90;51.40;;;;;;4976015;28;20119;-56
2021/04/26 02:42:03;;;;;;;1.02;0.40;;;15.00;73.60;;;;;;4958888;28;20151;-56
2021/04/26 02:44:30;;;;;;;1.40;0.35;;;14.80;51.40;;;;;;4975598;28;20081;-55
2021/04/26 02:47:06;;;;;;;1.90;0.40;;;15.30;51.70;;;;;;4975692;28;20022;-56
2021/04/26 02:49:33;;;;;;;0.65;0.60;;;14.80;51.40;;;;;;4975700;28;20030;-55
2021/04/26 02:52:00;;;;;;;0.65;0.40;;;14.80;73.60;;;;;;4975554;28;20018;-57
2021/04/26 02:54:27;;;;;;;1.85;0.35;;;14.80;51.40;;;;;;4975364;28;20030;-56
2021/04/26 02:56:56;;;;;;;1.00;0.50;;;14.80;73.80;;;;;;4975211;28;20031;-56
2021/04/26 02:59:22;;;;;;;1.58;0.30;;;14.80;73.80;;;;;;4975430;28;20389;-57
2021/04/26 03:01:48;;;;;;;2.25;0.75;;;14.80;51.50;;;;;;4975253;28;20026;-56
2021/04/26 03:04:17;;;;;;;1.65;0.50;;;14.80;51.50;;;;;;4974831;28;20047;-55
2021/04/26 03:06:46;;;;;;;1.77;0.50;;;14.80;52.10;;;;;;4975067;28;20051;-56
2021/04/26 03:09:12;;;;;;;0.93;0.45;;;14.60;51.40;;;;;;4975233;28;20058;-56
2021/04/26 03:11:38;;;;;;;0.98;0.32;;;14.80;51.50;;;;;;4975116;28;20508;-57
2021/04/26 03:14:04;;;;;;;1.50;0.50;;;14.70;51.40;;;;;;4974881;28;20102;-57
2021/04/26 03:16:30;;;;;;;0.82;0.47;;;14.80;73.80;;;;;;4974906;28;20056;-56
2021/04/26 03:18:56;;;;;;;2.05;0.60;;;15.10;51.70;;;;;;4974932;28;20082;-55
2021/04/26 03:21:23;;;;;;;1.73;0.60;;;14.70;51.40;;;;;;4975008;28;20038;-56
2021/04/26 03:23:49;;;;;;;0.95;0.40;;;14.70;74.10;;;;;;4974843;28;20504;-56
2021/04/26 03:26:14;;;;;;;0.90;0.50;;;14.70;51.50;;;;;;4975166;28;20027;-56
2021/04/26 03:28:42;;;;;;;2.58;0.85;;;14.80;73.90;;;;;;4957564;28;20474;-56
2021/04/26 03:31:09;;;;;;;1.52;0.63;;;14.70;51.50;;;;;;4974630;28;20027;-57
2021/04/26 03:33:35;;;;;;;1.92;0.47;;;14.90;51.60;;;;;;4974826;28;20081;-56
2021/04/26 03:36:02;;;;;;;1.33;0.38;;;14.70;74.20;;;;;;4974986;28;20030;-57
2021/04/26 03:38:29;;;;;;;2.20;0.77;;;14.70;51.50;;;;;;4974468;28;20062;-57
2021/04/26 03:40:57;;;;;;;3.03;0.60;;;15.20;51.80;;;;;;4974181;28;20102;-55
2021/04/26 03:43:24;;;;;;;1.58;0.38;;;14.70;51.50;;;;;;4974609;28;20023;-57
2021/04/26 03:45:52;;;;;;;1.40;0.50;;;14.90;51.60;;;;;;4974358;28;20035;-56
2021/04/26 03:48:17;;;;;;;2.20;0.75;;;14.70;74.10;;;;;;4957140;28;20081;-57
2021/04/26 03:50:45;;;;;;;0.95;0.40;;;14.70;51.50;;;;;;4956623;28;20019;-56
2021/04/26 03:53:10;;;;;;;1.02;0.43;;;14.60;51.50;;;;;;4974564;28;20022;-56
2021/04/26 03:55:36;;;;;;;0.70;0.50;;;14.40;51.40;;;;;;4974382;28;20383;-56
2021/04/26 03:58:02;;;;;;;2.55;0.50;;;14.60;51.50;;;;;;4974425;28;20027;-57
2021/04/26 04:00:28;;;;;;;0.85;0.40;;;14.50;74.10;;;;;;4974092;28;20525;-57
2021/04/26 04:02:54;;;;;;;2.35;0.47;;;14.60;74.20;;;;;;4974001;28;20082;-57
2021/04/26 04:05:20;;;;;;;1.23;0.50;;;14.60;51.50;;;;;;4973831;28;20050;-57
2021/04/26 04:07:46;;;;;;;1.40;0.50;;;14.60;73.60;;;;;;4974405;28;20056;-56
2021/04/26 04:10:13;;;;;;;0.98;0.50;;;14.60;51.60;;;;;;4973677;28;20549;-57
2021/04/26 04:12:39;;;;;;;2.58;0.47;;;14.50;51.60;;;;;;4973942;28;20033;-57
2021/04/26 04:15:06;;;;;;;2.25;0.68;;;15.00;51.80;;;;;;4974068;28;20031;-56
2021/04/26 04:17:32;;;;;;;0.55;0.40;;;14.50;74.80;;;;;;4974008;28;20091;-56
2021/04/26 04:19:58;;;;;;;1.00;0.40;;;14.50;74.90;;;;;;4973781;28;20026;-57
2021/04/26 04:22:23;;;;;;;2.38;0.65;;;14.50;75.10;;;;;;4973968;28;20474;-56
2021/04/26 04:24:49;;;;;;;2.10;0.68;;;14.60;75.40;;;;;;4973859;28;20552;-57
2021/04/26 04:27:15;;;;;;;1.70;0.30;;;14.80;76.40;;;;;;4973641;28;20032;-56
2021/04/26 04:29:41;;;;;;;1.83;0.47;;;14.80;76.80;;;;;;4974184;28;20031;-56
2021/04/26 04:32:07;;;;;;;1.05;0.50;;;14.50;76.80;;;;;;4973856;28;20063;-57
2021/04/26 04:34:33;;;;;;;0.38;0.32;;;14.60;76.30;;;;;;4973403;28;20050;-56
2021/04/26 04:36:59;;;;;;;1.05;0.30;;;14.50;76.40;;;;;;4973715;28;20034;-56
2021/04/26 04:39:25;;;;;;;2.13;0.50;;;14.20;76.00;;;;;;4973660;28;20019;-56
2021/04/26 04:41:51;;;;;;;1.48;0.40;;;14.50;76.50;;;;;;4973907;28;20385;-56
2021/04/26 04:44:16;;;;;;;0.57;0.30;;;14.50;76.80;;;;;;4956513;28;20413;-55
2021/04/26 04:46:42;;;;;;;0.50;0.30;;;14.70;76.20;;;;;;4956322;28;20023;-57
2021/04/26 04:49:08;;;;;;;1.15;0.60;;;14.50;51.70;;;;;;4973349;28;20037;-57
2021/04/26 04:51:34;;;;;;;4.07;0.60;;;14.50;75.70;;;;;;4956151;28;20023;-56
2021/04/26 04:53:59;;;;;;;1.17;0.32;;;14.50;51.70;;;;;;4959127;28;20532;-56
2021/04/26 04:56:25;;;;;;;1.75;0.40;;;14.50;75.80;;;;;;4959895;28;20018;-56
2021/04/26 04:58:51;;;;;;;1.88;0.80;;;14.70;75.80;;;;;;4959924;28;20030;-56
2021/04/26 05:01:17;;;;;;;1.30;0.50;;;14.70;75.70;;;;;;4977416;28;20027;-56
2021/04/26 05:03:42;;;;;;;0.88;0.30;;;14.30;75.60;;;;;;4977364;28;20050;-56
2021/04/26 05:06:08;;;;;;;0.30;0.25;;;14.50;76.20;;;;;;4977152;28;20042;-56
2021/04/26 05:08:34;;;;;;;0.88;0.50;;;14.80;76.50;;;;;;4959866;28;20022;-55
2021/04/26 05:11:00;;;;;;;1.67;0.20;;;14.70;76.30;;;;;;4977414;28;20030;-55
2021/04/26 05:13:25;;;;;;;1.55;0.65;;;14.60;52.60;;;;;;4977244;28;20023;-55
2021/04/26 05:15:51;;;;;;;1.58;0.40;;;14.80;76.10;;;;;;4977068;28;20494;-56
2021/04/26 05:18:17;;;;;;;0.75;0.30;;;14.70;52.50;;;;;;4977236;28;20058;-56
2021/04/26 05:20:42;;;;;;;2.25;0.47;;;14.70;75.30;;;;;;4977520;28;20106;-55
2021/04/26 05:23:11;;;;;;;2.42;0.73;;;15.00;75.50;;;;;;4977165;28;20027;-55
2021/04/26 05:25:37;;;;;;;1.35;0.40;;;15.00;75.20;;;;;;4976966;28;20094;-53
2021/04/26 05:28:03;;;;;;;0.63;0.30;;;15.30;75.20;;;;;;4976688;28;20034;-55
2021/04/26 05:30:30;;;;;;;0.90;0.52;;;15.10;52.00;;;;;;4959602;28;20469;-56
2021/04/26 05:32:56;;;;;;;0.45;0.32;;;15.60;74.80;;;;;;4977039;28;20027;-54
2021/04/26 05:35:22;;;;;;;1.15;0.40;;;15.30;51.80;;;;;;4976879;28;20035;-54
2021/04/26 05:37:48;;;;;;;1.45;0.40;;;15.40;51.40;;;;;;4959365;28;20026;-56
2021/04/26 05:40:14;;;;;;;2.40;0.45;;;15.50;51.30;;;;;;4976750;28;20026;-55
2021/04/26 05:42:40;;;;;;;0.77;0.77;;;15.50;51.20;;;;;;4976816;28;20438;-52
2021/04/26 05:45:06;;;;;;;1.80;0.45;;;15.80;74.50;;;;;;4976605;28;20110;-56
2021/04/26 05:47:32;;;;;;;2.47;0.57;;;15.40;51.40;;;;;;4976361;28;20019;-55
2021/04/26 05:49:58;;;;;;;1.52;0.40;;;15.20;74.50;;;;;;4976722;28;20381;-55
2021/04/26 05:52:24;;;;;;;1.02;0.30;;;15.40;74.80;;;;;;4976866;28;20045;-56
2021/04/26 05:54:50;;;;;;;1.33;0.45;;;15.10;74.60;;;;;;4976690;28;20031;-56
2021/04/26 05:57:15;;;;;;;1.48;0.50;;;15.20;51.80;;;;;;4976174;28;20046;-56
2021/04/26 05:59:41;;;;;;;0.95;0.30;;;15.20;74.80;;;;;;4976772;28;20110;-56
2021/04/26 06:02:07;;;;;;;0.93;0.60;;;15.20;51.70;;;;;;4976368;28;20069;-57
2021/04/26 06:04:33;;;;;;;0.40;0.30;;;15.10;74.50;;;;;;4975969;28;20122;-57
2021/04/26 06:06:58;;;;;;;1.20;0.40;;;15.00;51.60;;;;;;4975808;28;20161;-56
2021/04/26 06:09:24;;;;;;;1.83;0.52;;;15.40;74.60;;;;;;4958841;28;20492;-56
2021/04/26 06:11:49;;;;;;;2.35;0.40;;;15.20;74.80;;;;;;4976282;28;20413;-55
2021/04/26 06:14:15;;;;;;;2.28;0.47;;;15.10;51.90;;;;;;4976280;28;20038;-55
2021/04/26 06:16:40;;;;;;;1.50;0.20;;;15.20;52.00;;;;;;4975925;28;20059;-57
2021/04/26 06:19:06;;;;;;;2.20;0.50;;;14.90;74.50;;;;;;4976386;28;20027;-55
2021/04/26 06:21:32;;;;;;;3.22;0.45;;;15.10;74.80;;;;;;4976184;28;20023;-56
2021/04/26 06:23:58;;;;;;;1.30;0.63;;;15.20;74.70;;;;;;4976251;28;20023;-56
2021/04/26 06:26:23;;;;;;;2.75;0.50;;;15.10;74.70;;;;;;4975595;28;20037;-55
2021/04/26 06:28:49;;;;;;;3.05;0.45;;;15.20;74.60;;;;;;4975975;28;20102;-56
2021/04/26 06:31:15;;;;;;;2.60;0.60;;;15.10;51.80;;;;;;4976139;28;20030;-56
2021/04/26 06:33:40;;;;;;;4.65;1.00;;;15.30;51.80;;;;;;4975945;28;20023;-54
2021/04/26 06:36:06;;;;;;;1.88;0.50;;;15.00;51.60;;;;;;4957952;28;20038;-57
2021/04/26 06:38:32;;;;;;;6.53;0.50;;;15.10;51.10;;;;;;4975836;28;20027;-55
2021/04/26 06:40:58;;;;;;;3.45;0.40;;;15.00;51.60;;;;;;4975957;28;20034;-57
2021/04/26 06:43:23;;;;;;;7.25;0.60;;;15.20;51.70;;;;;;4976018;28;20019;-55
2021/04/26 06:45:49;;;;;;;2.47;0.52;;;15.40;51.70;;;;;;4975462;28;20038;-56
2021/04/26 06:48:16;;;;;;;4.78;0.75;;;15.30;51.80;;;;;;4975592;28;20031;-57
2021/04/26 06:50:43;;;;;;;6.35;1.33;;;15.30;51.90;;;;;;4975611;28;20019;-56
2021/04/26 06:53:09;;;;;;;4.30;0.68;;;15.30;52.00;;;;;;4975416;28;20489;-55
2021/04/26 06:55:34;;;;;;;4.70;0.60;;;15.40;75.20;;;;;;4974950;28;20058;-56
2021/04/26 06:58:00;;;;;;;3.00;0.63;;;15.30;52.00;;;;;;4975752;28;20026;-53
2021/04/26 07:00:27;;;;;;;2.28;0.52;;;15.40;51.90;;;;;;4975389;28;20023;-53
2021/04/26 07:02:54;;;;;;;5.78;0.70;;;15.40;51.80;;;;;;4975592;28;20138;-55
2021/04/26 07:05:19;;;;;;;10.63;0.85;;;15.40;76.20;;;;;;4974683;28;20130;-56
2021/04/26 07:07:45;;;;;;;11.07;0.90;;;15.30;76.30;;;;;;4975029;28;20495;-56
2021/04/26 07:10:11;;;;;;;6.55;1.15;;;15.50;52.80;;;;;;4975195;28;20055;-56
2021/04/26 07:12:38;;;;;;;3.78;0.85;;;15.50;52.40;;;;;;4975116;28;20030;-55
2021/04/26 07:15:09;;;;;;;5.57;1.13;;;15.50;52.20;;;;;;4974526;28;20030;-54
2021/04/26 07:17:34;;;;;;;4.55;1.30;;;15.50;52.10;;;;;;4975293;28;20034;-55
2021/04/26 07:20:01;;;;;;;5.30;0.70;;;15.50;52.10;;;;;;4975090;28;20023;-53
2021/04/26 07:22:27;;;;;;;6.50;1.00;;;15.60;52.20;;;;;;4975137;28;20095;-56
2021/04/26 07:24:53;;;;;;;5.03;0.80;;;15.50;52.20;;;;;;4974670;28;20027;-54
2021/04/26 07:27:19;;;;;;;1.85;0.73;;;15.60;52.10;;;;;;4974672;28;20019;-55
2021/04/26 07:29:44;;;;;;;4.10;0.80;;;15.60;52.70;;;;;;4974832;28;20027;-55
2021/04/26 07:32:10;;;;;;;5.78;0.68;;;15.60;52.00;;;;;;4974970;28;20027;-55
2021/04/26 07:34:35;;;;;;;4.28;1.05;;;15.60;52.10;;;;;;4974609;28;20023;-56
2021/04/26 07:37:01;;;;;;;5.72;1.00;;;15.40;76.00;;;;;;4974306;28;20022;-55
2021/04/26 07:39:28;;;;;;;4.50;0.90;;;15.70;74.80;;;;;;4957401;28;20030;-55
2021/04/26 07:41:53;;;;;;;4.10;1.05;;;15.50;51.70;;;;;;4957350;28;20030;-55
2021/04/26 07:44:19;;;;;;;3.30;0.88;;;15.70;74.50;;;;;;4974829;28;20023;-54
2021/04/26 07:46:45;;;;;;;5.53;0.70;;;15.70;51.80;;;;;;4974585;28;20086;-54
2021/04/26 07:49:11;;;;;;;6.03;0.75;;;15.70;51.80;;;;;;4974493;28;20433;-54
2021/04/26 07:51:37;;;;;;;3.13;0.80;;;15.70;51.80;;;;;;4974675;28;20033;-56
2021/04/26 07:54:03;;;;;;;2.10;0.75;;;15.80;51.70;;;;;;4974124;28;20374;-56
2021/04/26 07:56:30;;;;;;;4.88;1.15;;;15.60;73.80;;;;;;4956774;28;20031;-55
2021/04/26 07:58:56;;;;;;;2.70;0.80;;;15.80;51.70;;;;;;4974377;28;20107;-55
2021/04/26 08:01:22;;;;;;;3.13;0.60;;;15.80;51.60;;;;;;4974145;28;20121;-55
2021/04/26 08:03:47;;;;;;;4.88;1.10;;;15.80;73.70;;;;;;4973961;28;20039;-55
2021/04/26 08:06:13;;;;;;;5.57;0.70;;;16.20;51.70;;;;;;4974291;28;20455;-55
2021/04/26 08:08:38;;;;;;;1.55;0.55;;;15.90;51.40;;;;;;4974446;28;20094;-55
2021/04/26 08:11:04;;;;;;;1.52;0.60;;;15.90;51.40;;;;;;4974215;28;20023;-56
2021/04/26 08:13:31;;;;;;;2.88;0.50;;;16.00;51.30;;;;;;4973995;28;20019;-55
2021/04/26 08:15:57;;;;;;;2.28;0.70;;;16.00;51.20;;;;;;4973885;28;20042;-54
2021/04/26 08:18:23;;;;;;;2.92;0.65;;;16.10;51.20;;;;;;4974366;28;20030;-55
2021/04/26 08:20:49;;;;;;;1.90;0.75;;;16.10;51.10;;;;;;4973973;28;20038;-55
2021/04/26 08:23:15;;;;;;;1.20;0.57;;;16.00;51.60;;;;;;4973826;28;20137;-55
2021/04/26 08:25:41;;;;;;;1.42;0.47;;;16.20;73.00;;;;;;4973696;28;20642;-56
2021/04/26 08:28:06;;;;;;;1.42;0.50;;;16.20;51.10;;;;;;4974017;28;20038;-55
2021/04/26 08:30:32;;;;;;;4.63;0.57;;;16.20;51.00;;;;;;4974033;28;20027;-55
2021/04/26 08:32:58;;;;;;;2.17;0.50;;;16.20;50.80;;;;;;4973882;28;20374;-55
2021/04/26 08:35:23;;;;;;;2.78;0.40;;;16.30;50.80;;;;;;4973759;28;20077;-55
2021/04/26 08:37:49;;;;;;;1.70;0.30;;;16.90;50.90;;;;;;4956576;28;20038;-55
2021/04/26 08:40:15;;;;;;;2.65;0.55;;;16.50;72.20;;;;;;4973871;28;20466;-56
2021/04/26 08:42:41;;;;;;;1.35;0.50;;;16.40;50.50;;;;;;4973916;28;20462;-54
2021/04/26 08:45:09;;;;;;;1.83;0.40;;;16.50;50.40;;;;;;4956510;28;20034;-51
2021/04/26 08:47:38;;;;;;;2.17;0.68;;;16.70;71.70;;;;;;4973862;28;20026;-53
2021/04/26 08:50:05;;;;;;;2.58;0.88;;;16.70;72.20;;;;;;4973939;28;20022;-53
2021/04/26 08:52:31;;;;;;;2.50;0.60;;;16.70;71.90;;;;;;4956214;28;20478;-53
2021/04/26 08:54:59;;;;;;;1.75;0.63;;;16.70;50.10;;;;;;4973566;28;20058;-55
2021/04/26 08:57:25;;;;;;;0.90;0.50;;;16.70;50.10;;;;;;4956472;28;20023;-54
2021/04/26 08:59:51;;;;;;;1.50;0.80;;;16.70;50.10;;;;;;4973564;28;20019;-56
2021/04/26 09:02:16;;;;;;;2.55;0.50;;;16.80;50.00;;;;;;4956366;28;20126;-55
2021/04/26 09:04:51;;;;;;;1.85;0.52;;;16.80;50.00;;;;;;4973212;28;20121;-55
2021/04/26 09:07:19;;;;;;;3.33;1.02;;;17.20;72.40;;;;;;4973639;28;20041;-56
2021/04/26 09:09:50;;;;;;;3.00;0.50;;;16.80;50.00;;;;;;4973914;28;20023;-56
2021/04/26 09:12:22;;;;;;;3.20;0.85;;;16.90;49.40;;;;;;4973830;28;20030;-56
2021/04/26 09:14:49;;;;;;;2.28;0.40;;;16.80;48.50;;;;;;4973526;28;20023;-56
2021/04/26 09:17:32;;;;;;;2.85;0.68;;;16.90;48.20;;;;;;4956242;28;20059;-56
2021/04/26 09:20:17;;;;;;;2.03;0.40;;;16.90;47.70;;;;;;4973132;28;20030;-55
2021/04/26 09:22:55;;;;;;;4.28;0.88;;;16.70;47.30;;;;;;4972835;28;20118;-54
2021/04/26 09:25:39;;;;;;;3.20;0.50;;;16.90;47.20;;;;;;4973560;28;20377;-55
2021/04/26 09:28:19;;;;;;;2.92;0.47;;;17.00;47.00;;;;;;4972951;28;20113;-54
2021/04/26 09:30:55;;;;;;;2.05;0.63;;;17.00;46.80;;;;;;4973737;28;20027;-55
2021/04/26 09:33:28;;;;;;;1.98;0.65;;;17.00;46.70;;;;;;4973335;28;20023;-56
2021/04/26 09:36:19;;;;;;;0.88;0.47;;;17.00;46.50;;;;;;4955931;28;20475;-56
2021/04/26 09:38:53;;;;;;;0.68;0.57;;;17.10;46.30;;;;;;4974069;28;20058;-56
2021/04/26 09:41:27;;;;;;;3.65;0.70;;;17.10;46.20;;;;;;4976636;28;20027;-56
2021/04/26 09:44:02;;;;;;;4.25;0.70;;;17.10;45.80;;;;;;4959536;28;20037;-56
2021/04/26 09:46:45;;;;;;;5.35;0.47;;;17.10;45.80;;;;;;4976995;28;20034;-56
2021/04/26 09:49:19;;;;;;;3.00;0.55;;;17.10;45.60;;;;;;4976755;28;20079;-56
2021/04/26 09:51:48;;;;;;;3.78;0.80;;;17.20;45.60;;;;;;4976507;28;20422;-55
2021/04/26 09:54:14;;;;;;;2.97;0.60;;;17.10;45.30;;;;;;4976387;28;20019;-56
2021/04/26 09:56:42;;;;;;;2.20;0.65;;;17.20;66.30;;;;;;4976757;28;20022;-55
2021/04/26 09:59:13;;;;;;;0.65;0.50;;;17.20;45.00;;;;;;4976496;28;20023;-56
2021/04/26 10:01:39;;;;;;;1.25;0.63;;;17.20;45.10;;;;;;4958559;28;20041;-56
2021/04/26 10:04:06;;;;;;;1.73;0.43;;;17.30;45.10;;;;;;4958738;28;20090;-55
2021/04/26 10:06:33;;;;;;;3.05;0.75;;;17.50;66.60;;;;;;4976168;28;20103;-55
2021/04/26 10:09:01;;;;;;;1.02;0.45;;;17.50;45.60;;;;;;4958996;28;20023;-56
2021/04/26 10:11:31;;;;;;;1.33;0.80;;;17.70;45.60;;;;;;4975925;28;20039;-55
2021/04/26 10:14:17;;;;;;;2.57;0.60;;;18.10;50.00;;;;;;4976510;28;20015;-56
2021/04/26 10:17:08;;;;;;;2.10;0.60;;;17.90;45.80;;;;;;4976466;28;20053;-56
2021/04/26 10:19:37;;;;;;;1.17;0.38;;;17.90;66.90;;;;;;4975971;28;20031;-56
2021/04/26 10:22:04;;;;;;;3.17;0.50;;;17.90;67.00;;;;;;4975909;28;20028;-55
2021/04/26 10:24:31;;;;;;;1.92;0.60;;;18.00;45.70;;;;;;4975971;28;20102;-55
2021/04/26 10:27:05;;;;;;;1.75;0.52;;;18.00;45.70;;;;;;4976094;28;20453;-56
2021/04/26 10:29:34;;;;;;;0.90;0.40;;;18.00;45.80;;;;;;4976194;28;20023;-56
2021/04/26 10:32:07;;;;;;;0.52;0.20;;;17.90;45.80;;;;;;4975500;28;20018;-56
2021/04/26 10:34:56;;;;;;;1.13;0.30;;;18.00;45.80;;;;;;4958458;28;20015;-56
2021/04/26 10:37:27;;;;;;;1.50;0.40;;;18.00;45.80;;;;;;4975280;28;20039;-56
2021/04/26 10:39:55;;;;;;;;;;;18.10;45.70;;;;;;4975919;28;20023;-57
2021/04/26 10:42:33;;;;;;;0.93;0.40;;;18.10;45.90;;;;;;4957995;28;19906;-56
2021/04/26 10:44:59;;;;;;;0.77;0.38;;;18.10;45.90;;;;;;4958280;28;20042;-55
2021/04/26 10:47:31;;;;;;;1.10;0.50;;;18.60;46.20;;;;;;4975819;28;20023;-56
2021/04/26 10:50:05;;;;;;;1.25;0.35;;;18.10;45.90;;;;;;4974429;28;20482;-56
2021/04/26 10:52:33;;;;;;;0.95;0.60;;;18.20;45.90;;;;;;4975344;28;20034;-56
2021/04/26 10:55:00;;;;;;;2.35;0.77;;;18.20;46.00;;;;;;4975299;28;20382;-56
2021/04/26 10:57:39;;;;;;;1.85;0.40;;;18.40;45.90;;;;;;4975420;28;20019;-54
2021/04/26 11:00:23;;;;;;;0.90;0.50;;;18.40;45.70;;;;;;4975228;28;20038;-56
2021/04/26 11:03:05;;;;;;;0.40;0.40;;;18.50;46.40;;;;;;4975130;28;20027;-55
2021/04/26 11:05:34;;;;;;;1.85;0.40;;;18.70;46.40;;;;;;4975243;28;20043;-55
2021/04/26 11:08:12;;;;;;;1.38;0.40;;;18.80;46.50;;;;;;4975145;28;20407;-56
2021/04/26 11:10:43;;;;;;;1.08;0.38;;;19.10;67.80;;;;;;4974711;28;20054;-52
2021/04/26 11:13:30;;;;;;;1.95;0.55;;;18.90;46.80;;;;;;4975049;28;20026;-56
2021/04/26 11:16:07;;;;;;;1.38;0.45;;;19.10;67.80;;;;;;4975028;28;20031;-55
2021/04/26 11:18:58;;;;;;;5.20;1.27;;;19.10;46.60;;;;;;4974927;28;20026;-55
2021/04/26 11:24:09;;;;;;;8.23;1.65;;;19.10;47.70;;;;;;4974792;28;20453;-56
2021/04/26 11:26:35;;;;;;;6.30;2.08;;;19.10;49.10;;;;;;4974825;28;20541;-56
2021/04/26 11:29:11;;;;;;;6.18;1.55;;;19.10;49.10;;;;;;4974684;28;20105;-56
2021/04/26 11:31:43;;;;;;;6.78;1.88;;;19.20;48.70;;;;;;4974598;28;20039;-54
2021/04/26 11:34:17;;;;;;;4.95;1.50;;;19.30;49.20;;;;;;4974645;28;20098;-56
2021/04/26 11:37:01;;;;;;;5.30;1.63;;;19.40;70.10;;;;;;4974620;28;20093;-55
2021/04/26 11:39:31;;;;;;;3.80;1.20;;;19.00;69.80;;;;;;4956841;28;20027;-56
2021/04/26 11:41:58;;;;;;;4.45;1.38;;;19.20;48.90;;;;;;4974527;28;20062;-55
2021/04/26 11:44:31;;;;;;;7.60;1.40;;;19.20;49.30;;;;;;4974651;28;20434;-55
2021/04/26 11:47:08;;;;;;;5.03;1.20;;;19.20;48.80;;;;;;4957097;28;20027;-55
2021/04/26 11:49:34;;;;;;;4.82;1.63;;;19.30;49.50;;;;;;4974093;28;20090;-56
2021/04/26 11:52:09;;;;;;;2.80;1.30;;;19.30;49.50;;;;;;4974432;28;20050;-57
2021/04/26 11:54:36;;;;;;;4.18;1.55;;;19.20;49.30;;;;;;4974435;28;20098;-56
2021/04/26 11:57:08;;;;;;;3.05;0.85;;;19.10;48.20;;;;;;4974391;28;20023;-55
2021/04/26 11:59:35;;;;;;;1.80;1.05;;;18.90;45.80;;;;;;4973635;28;20383;-57
2021/04/26 12:02:01;;;;;;;2.90;0.90;;;18.90;45.10;;;;;;4973962;28;20030;-57
2021/04/26 12:04:41;;;;;;;2.80;1.00;;;18.80;44.50;;;;;;4973932;28;20055;-58
2021/04/26 12:07:12;;;;;;;4.97;1.08;;;18.70;44.30;;;;;;4974459;28;20045;-57
2021/04/26 12:09:39;;;;;;;3.20;0.88;;;18.80;64.70;;;;;;4956495;28;20018;-57
2021/04/26 12:12:07;;;;;;;2.50;0.95;;;18.50;64.30;;;;;;4974019;28;20374;-57
2021/04/26 12:14:33;;;;;;;1.80;0.65;;;18.60;43.80;;;;;;4974094;28;20387;-57
2021/04/26 12:17:38;;;;;;;3.25;0.55;;;18.50;43.40;;;;;;4974017;28;20486;-57
2021/04/26 12:20:09;;;;;;;1.58;0.70;;;18.50;63.60;;;;;;4943660;28;20042;-56
2021/04/26 12:22:35;;;;;;;1.58;0.82;;;18.50;43.00;;;;;;4973858;28;20086;-58
2021/04/26 12:25:05;;;;;;;2.80;0.73;;;18.40;42.90;;;;;;4973782;28;20070;-58
2021/04/26 12:27:31;;;;;;;2.50;0.90;;;18.50;42.80;;;;;;4956336;28;20490;-56
2021/04/26 12:30:09;;;;;;;2.05;0.57;;;18.40;42.80;;;;;;4973672;28;20030;-57
2021/04/26 12:32:35;;;;;;;3.13;0.80;;;18.40;42.60;;;;;;4973867;28;20027;-56
2021/04/26 12:35:06;;;;;;;4.53;0.63;;;18.40;42.60;;;;;;4973811;28;20026;-56
2021/04/26 12:37:35;;;;;;;1.70;0.68;;;18.30;42.50;;;;;;4973347;28;20026;-57
2021/04/26 12:40:13;;;;;;;3.80;0.57;;;18.40;42.60;;;;;;4973606;28;20018;-57
2021/04/26 12:42:39;;;;;;;1.60;0.55;;;18.30;63.80;;;;;;4973523;28;20031;-56
2021/04/26 12:45:22;;;;;;;1.85;0.68;;;18.30;42.80;;;;;;4973638;28;20038;-57
2021/04/26 12:48:03;;;;;;;4.90;0.65;;;18.30;42.70;;;;;;4956392;28;20050;-57
2021/04/26 12:50:36;;;;;;;4.53;0.70;;;18.30;42.70;;;;;;4973660;28;20041;-56
2021/04/26 12:53:07;;;;;;;3.03;0.88;;;18.30;42.70;;;;;;4973976;28;20385;-55
2021/04/26 12:55:35;;;;;;;4.30;0.82;;;18.30;42.60;;;;;;4973613;28;20478;-57
2021/04/26 12:58:11;;;;;;;6.93;0.82;;;18.20;42.60;;;;;;4973480;28;20030;-56